createdAt,value
2019-03-29T00:00:16.324Z,74.70
2019-03-29T00:02:44.777Z,74.90
2019-03-29T00:05:13.081Z,74.40
2019-03-29T00:07:41.966Z,74.80
2019-03-29T00:10:10.610Z,74.50
2019-03-29T00:12:39.012Z,74.90
2019-03-29T00:15:08.072Z,74.80
2019-03-29T00:17:36.741Z,74.70
2019-03-29T00:20:06.889Z,75.10
2019-03-29T00:22:35.245Z,75.30
2019-03-29T00:25:03.627Z,75.40
2019-03-29T00:27:32.002Z,75.80
2019-03-29T00:30:00.370Z,75.70
2019-03-29T00:32:28.768Z,76.40
2019-03-29T00:34:57.146Z,76.30
2019-03-29T00:37:25.530Z,76.30
2019-03-29T00:39:53.905Z,76.20
2019-03-29T00:42:22.304Z,76.10
2019-03-29T00:44:50.676Z,76.70
2019-03-29T00:47:19.076Z,76.50
2019-03-29T00:49:47.438Z,77.20
2019-03-29T00:52:16.814Z,77.50
2019-03-29T00:54:45.302Z,77.90
2019-03-29T00:57:13.715Z,78.20
2019-03-29T00:59:42.087Z,78.10
2019-03-29T01:02:10.632Z,79.10
2019-03-29T01:04:39.010Z,79.00
2019-03-29T01:07:07.383Z,79.60
2019-03-29T01:09:35.789Z,80.00
2019-03-29T01:12:04.164Z,80.40
2019-03-29T01:14:32.545Z,80.90
2019-03-29T01:17:00.915Z,81.60
2019-03-29T01:19:29.902Z,81.50
2019-03-29T01:21:58.265Z,82.00
2019-03-29T01:24:26.672Z,81.90
2019-03-29T01:26:55.045Z,82.40
2019-03-29T01:29:23.441Z,82.60
2019-03-29T01:31:51.800Z,83.00
2019-03-29T01:34:20.203Z,81.70
2019-03-29T01:36:48.562Z,81.30
2019-03-29T01:39:17.003Z,80.50
2019-03-29T01:41:45.556Z,80.20
2019-03-29T01:44:13.958Z,80.10
2019-03-29T01:46:42.336Z,80.20
2019-03-29T01:49:10.751Z,81.10
2019-03-29T01:51:39.165Z,81.40
2019-03-29T01:54:07.560Z,81.40
2019-03-29T01:56:35.924Z,81.50
2019-03-29T01:59:04.376Z,81.60
2019-03-29T02:01:32.766Z,81.70
2019-03-29T02:04:01.241Z,81.70
2019-03-29T02:06:29.629Z,80.80
2019-03-29T02:08:58.041Z,80.70
2019-03-29T02:11:26.537Z,81.40
2019-03-29T02:13:55.029Z,82.00
2019-03-29T02:16:23.433Z,82.50
2019-03-29T02:18:51.855Z,82.90
2019-03-29T02:21:20.243Z,83.00
2019-03-29T02:23:48.745Z,83.20
2019-03-29T02:26:17.101Z,83.60
2019-03-29T02:28:45.497Z,84.40
2019-03-29T02:31:13.942Z,84.10
2019-03-29T02:33:42.337Z,84.30
2019-03-29T02:36:10.764Z,84.20
2019-03-29T02:38:54.080Z,84.70
2019-03-29T02:41:09.730Z,85.20
2019-03-29T02:43:38.671Z,85.60
2019-03-29T02:46:07.362Z,85.60
2019-03-29T02:48:35.921Z,85.30
2019-03-29T02:51:04.751Z,84.20
2019-03-29T02:53:33.648Z,84.30
2019-03-29T02:56:02.059Z,84.40
2019-03-29T02:58:30.558Z,83.00
2019-03-29T03:00:58.980Z,83.00
2019-03-29T03:03:27.373Z,82.80
2019-03-29T03:05:55.787Z,82.60
2019-03-29T03:08:24.173Z,82.30
2019-03-29T03:10:52.598Z,82.20
2019-03-29T03:13:20.997Z,82.20
2019-03-29T03:15:49.507Z,82.50
2019-03-29T03:18:17.864Z,82.70
2019-03-29T03:20:46.278Z,82.30
2019-03-29T03:23:14.787Z,82.10
2019-03-29T03:25:43.219Z,81.90
2019-03-29T03:28:11.609Z,82.40
2019-03-29T03:30:40.048Z,82.60
2019-03-29T03:33:08.501Z,82.80
2019-03-29T03:35:37.018Z,82.50
2019-03-29T03:38:05.445Z,82.00
2019-03-29T03:40:33.882Z,82.00
2019-03-29T03:43:02.350Z,82.60
2019-03-29T03:45:30.786Z,82.50
2019-03-29T03:47:59.183Z,82.60
2019-03-29T03:50:46.996Z,83.10
2019-03-29T03:53:15.368Z,82.90
2019-03-29T03:55:43.769Z,84.00
2019-03-29T03:58:12.318Z,85.00
2019-03-29T04:00:55.549Z,85.60
2019-03-29T04:03:24.069Z,86.00
2019-03-29T04:05:52.460Z,85.90
2019-03-29T04:08:20.878Z,85.70
2019-03-29T04:10:49.246Z,85.60
2019-03-29T04:13:17.618Z,85.10
2019-03-29T04:15:46.025Z,84.60
2019-03-29T04:18:16.094Z,83.90
2019-03-29T04:20:44.480Z,83.60
2019-03-29T04:23:12.845Z,83.70
2019-03-29T04:25:41.267Z,83.50
2019-03-29T04:28:09.633Z,84.40
2019-03-29T04:30:38.020Z,84.70
2019-03-29T04:33:10.833Z,85.00
2019-03-29T04:35:36.520Z,85.50
2019-03-29T04:38:04.825Z,85.50
2019-03-29T04:40:33.219Z,84.70
2019-03-29T04:43:01.619Z,84.30
2019-03-29T04:45:30.013Z,84.20
2019-03-29T04:47:58.404Z,83.90
2019-03-29T04:50:28.001Z,84.10
2019-03-29T04:52:56.370Z,84.60
2019-03-29T04:55:24.779Z,83.90
2019-03-29T04:57:53.133Z,84.00
2019-03-29T05:00:21.623Z,83.90
2019-03-29T05:02:50.013Z,83.60
2019-03-29T05:05:18.408Z,83.40
2019-03-29T05:07:46.784Z,83.90
2019-03-29T05:10:21.445Z,84.40
2019-03-29T05:12:45.208Z,84.80
2019-03-29T05:15:13.590Z,85.10
2019-03-29T05:17:41.989Z,87.00
2019-03-29T05:20:10.365Z,88.70
2019-03-29T05:22:38.768Z,89.50
2019-03-29T05:25:07.185Z,90.20
2019-03-29T05:27:35.597Z,90.40
2019-03-29T05:30:05.323Z,90.30
2019-03-29T05:32:33.710Z,90.30
2019-03-29T05:35:02.155Z,90.10
2019-03-29T05:37:30.552Z,90.10
2019-03-29T05:39:58.931Z,90.10
2019-03-29T05:42:27.388Z,89.80
2019-03-29T05:44:55.796Z,90.10
2019-03-29T05:47:24.179Z,88.90
2019-03-29T05:49:52.551Z,89.10
2019-03-29T05:52:20.938Z,88.50
2019-03-29T05:54:49.320Z,88.30
2019-03-29T05:57:17.720Z,88.40
2019-03-29T05:59:46.101Z,87.90
2019-03-29T06:02:14.497Z,87.90
2019-03-29T06:04:42.877Z,87.00
2019-03-29T06:07:11.276Z,85.70
2019-03-29T06:09:39.657Z,84.80
2019-03-29T06:12:08.055Z,84.90
2019-03-29T06:14:36.446Z,84.90
2019-03-29T06:17:04.832Z,84.70
2019-03-29T06:19:33.207Z,84.30
2019-03-29T06:22:01.612Z,84.20
2019-03-29T06:24:29.976Z,84.10
2019-03-29T06:26:58.373Z,84.30
2019-03-29T06:29:26.743Z,84.40
2019-03-29T06:31:55.158Z,83.90
2019-03-29T06:34:23.520Z,81.60
2019-03-29T06:36:51.920Z,78.90
2019-03-29T06:39:21.389Z,76.40
2019-03-29T06:41:49.938Z,72.80
2019-03-29T06:44:18.321Z,68.20
2019-03-29T06:46:46.720Z,61.50
2019-03-29T06:49:15.103Z,57.80
2019-03-29T06:51:43.512Z,55.10
2019-03-29T06:54:11.900Z,52.00
2019-03-29T06:56:40.304Z,49.00
2019-03-29T06:59:08.699Z,51.70
2019-03-29T07:01:37.096Z,54.40
2019-03-29T07:04:05.471Z,53.00
2019-03-29T07:06:33.875Z,53.70
2019-03-29T07:09:02.256Z,53.30
2019-03-29T07:11:30.654Z,54.60
2019-03-29T07:13:59.035Z,56.30
2019-03-29T07:16:27.439Z,57.50
2019-03-29T07:18:55.816Z,56.00
2019-03-29T07:21:24.201Z,55.50
2019-03-29T07:23:52.599Z,55.00
2019-03-29T07:26:20.980Z,56.30
2019-03-29T07:28:49.403Z,58.50
2019-03-29T07:31:17.782Z,57.90
2019-03-29T07:33:46.116Z,60.70
2019-03-29T07:36:14.500Z,61.20
2019-03-29T07:38:42.904Z,58.10
2019-03-29T07:41:11.298Z,58.60
2019-03-29T07:43:39.699Z,61.30
2019-03-29T07:46:08.075Z,61.20
2019-03-29T07:48:36.463Z,60.40
2019-03-29T07:51:04.908Z,60.00
2019-03-29T07:53:33.229Z,59.50
2019-03-29T07:56:01.608Z,60.90
2019-03-29T07:58:29.999Z,60.90
2019-03-29T08:00:58.378Z,60.00
2019-03-29T08:03:26.775Z,59.40
2019-03-29T08:05:55.144Z,59.40
2019-03-29T08:08:29.101Z,60.20
2019-03-29T08:10:54.217Z,61.10
2019-03-29T08:13:22.666Z,61.70
2019-03-29T08:15:51.030Z,62.00
2019-03-29T08:18:19.468Z,63.10
2019-03-29T08:20:49.472Z,63.10
2019-03-29T08:23:17.867Z,61.40
2019-03-29T08:25:46.246Z,59.10
2019-03-29T08:28:14.646Z,57.90
2019-03-29T08:30:43.024Z,58.10
2019-03-29T08:33:11.492Z,58.40
2019-03-29T08:35:41.466Z,59.50
2019-03-29T08:38:09.763Z,58.40
2019-03-29T08:40:38.138Z,58.70
2019-03-29T08:43:06.544Z,57.40
2019-03-29T08:45:34.925Z,58.20
2019-03-29T08:48:06.509Z,58.40
2019-03-29T08:50:33.359Z,57.60
2019-03-29T08:53:01.896Z,56.00
2019-03-29T08:55:30.276Z,55.60
2019-03-29T08:57:58.903Z,56.00
2019-03-29T09:00:30.595Z,55.60
2019-03-29T09:02:58.988Z,55.30
2019-03-29T09:05:27.399Z,55.50
2019-03-29T09:07:55.802Z,55.90
2019-03-29T09:10:27.619Z,55.30
2019-03-29T09:12:56.028Z,55.40
2019-03-29T09:15:24.446Z,54.70
2019-03-29T09:17:52.844Z,54.60
2019-03-29T09:20:21.227Z,54.80
2019-03-29T09:22:49.644Z,54.10
2019-03-29T09:25:20.887Z,54.50
2019-03-29T09:27:48.067Z,54.30
2019-03-29T09:30:16.457Z,52.30
2019-03-29T09:32:44.866Z,52.70
2019-03-29T09:35:13.267Z,51.40
2019-03-29T09:37:41.665Z,51.80
2019-03-29T09:40:10.060Z,52.30
2019-03-29T09:42:38.447Z,50.60
2019-03-29T09:45:07.472Z,51.20
2019-03-29T09:47:40.171Z,51.40
2019-03-29T09:50:10.060Z,50.70
2019-03-29T09:52:36.928Z,50.60
2019-03-29T09:55:05.380Z,49.60
2019-03-29T09:57:38.199Z,48.60
2019-03-29T10:00:18.017Z,48.40
2019-03-29T10:02:36.738Z,48.70
2019-03-29T10:05:05.962Z,47.30
2019-03-29T10:07:34.322Z,49.60
2019-03-29T10:10:02.724Z,46.60
2019-03-29T10:12:42.802Z,45.00
2019-03-29T10:15:01.140Z,46.20
2019-03-29T10:17:29.514Z,46.40
2019-03-29T10:19:57.979Z,47.00
2019-03-29T10:22:26.361Z,47.40
2019-03-29T10:24:54.764Z,47.20
2019-03-29T10:27:23.141Z,46.90
2019-03-29T10:29:51.551Z,48.20
2019-03-29T10:32:19.918Z,48.50
2019-03-29T10:34:48.311Z,47.40
2019-03-29T10:37:16.675Z,47.00
2019-03-29T10:39:45.087Z,47.60
2019-03-29T10:42:14.349Z,47.20
2019-03-29T10:44:42.746Z,46.60
2019-03-29T10:47:11.135Z,44.00
2019-03-29T10:49:39.531Z,45.00
2019-03-29T10:52:07.908Z,44.20
2019-03-29T10:54:36.303Z,43.90
2019-03-29T10:57:04.673Z,42.80
2019-03-29T10:59:33.079Z,41.70
2019-03-29T11:02:01.446Z,41.00
2019-03-29T11:04:31.834Z,40.50
2019-03-29T11:06:59.865Z,38.40
2019-03-29T11:09:28.261Z,37.00
2019-03-29T11:11:56.626Z,33.40
2019-03-29T11:14:25.027Z,30.60
2019-03-29T11:16:53.390Z,31.20
2019-03-29T11:19:21.819Z,32.90
2019-03-29T11:21:50.211Z,35.70
2019-03-29T11:24:18.611Z,37.80
2019-03-29T11:26:46.985Z,39.70
2019-03-29T11:29:15.392Z,42.50
2019-03-29T11:31:43.768Z,41.00
2019-03-29T11:34:12.175Z,40.50
2019-03-29T11:36:40.533Z,40.60
2019-03-29T11:39:08.924Z,41.10
2019-03-29T11:41:37.307Z,41.90
2019-03-29T11:44:05.679Z,42.30
2019-03-29T11:46:34.071Z,43.50
2019-03-29T11:49:02.527Z,43.60
2019-03-29T11:51:30.915Z,42.80
2019-03-29T11:53:59.354Z,43.10
2019-03-29T11:56:27.747Z,41.90
2019-03-29T11:58:56.122Z,41.80
2019-03-29T12:01:24.536Z,42.10
2019-03-29T12:03:52.911Z,43.60
2019-03-29T12:06:21.302Z,43.50
2019-03-29T12:08:49.673Z,44.20
2019-03-29T12:11:18.078Z,43.90
2019-03-29T12:13:46.501Z,43.50
2019-03-29T12:16:14.898Z,43.40
2019-03-29T12:18:43.278Z,43.50
2019-03-29T12:21:11.656Z,43.10
2019-03-29T12:23:40.026Z,42.90
2019-03-29T12:26:08.419Z,42.80
2019-03-29T12:28:36.787Z,41.80
2019-03-29T12:31:05.176Z,41.30
2019-03-29T12:33:33.557Z,41.20
2019-03-29T12:36:02.019Z,41.60
2019-03-29T12:38:30.439Z,42.30
2019-03-29T12:40:58.839Z,42.40
2019-03-29T12:43:27.206Z,41.90
2019-03-29T12:45:55.611Z,41.70
2019-03-29T12:48:23.986Z,41.60
2019-03-29T12:50:52.383Z,41.80
2019-03-29T12:53:20.767Z,40.90
2019-03-29T12:55:49.151Z,42.10
2019-03-29T12:58:17.524Z,42.60
2019-03-29T13:00:45.921Z,42.20
2019-03-29T13:03:14.282Z,40.90
2019-03-29T13:05:42.762Z,41.50
2019-03-29T13:08:11.127Z,41.30
2019-03-29T13:10:42.396Z,41.90
2019-03-29T13:13:09.547Z,42.00
2019-03-29T13:15:37.918Z,41.70
2019-03-29T13:18:06.304Z,40.80
2019-03-29T13:20:34.695Z,41.80
2019-03-29T13:23:03.065Z,40.90
2019-03-29T13:25:31.474Z,40.20
2019-03-29T13:27:59.858Z,40.50
2019-03-29T13:30:28.322Z,40.70
2019-03-29T13:32:56.680Z,40.00
2019-03-29T13:35:25.078Z,40.30
2019-03-29T13:37:53.456Z,40.90
2019-03-29T13:40:21.915Z,41.10
2019-03-29T13:42:50.232Z,39.60
2019-03-29T13:45:18.624Z,39.90
2019-03-29T13:47:46.987Z,39.80
2019-03-29T13:50:15.392Z,38.40
2019-03-29T13:52:43.881Z,38.20
2019-03-29T13:55:12.231Z,38.20
2019-03-29T13:57:40.630Z,38.60
2019-03-29T14:00:10.826Z,39.00
2019-03-29T14:02:39.228Z,39.50
2019-03-29T14:05:07.605Z,39.10
2019-03-29T14:07:36.000Z,39.60
2019-03-29T14:10:06.610Z,38.90
2019-03-29T14:12:35.008Z,38.70
2019-03-29T14:15:03.545Z,38.80
2019-03-29T14:17:31.940Z,38.10
2019-03-29T14:20:00.390Z,36.90
2019-03-29T14:22:28.711Z,37.90
2019-03-29T14:24:57.086Z,37.90
2019-03-29T14:27:25.491Z,38.30
2019-03-29T14:30:04.133Z,38.30
2019-03-29T14:32:23.919Z,38.50
2019-03-29T14:34:52.287Z,38.90
2019-03-29T14:37:20.689Z,38.50
2019-03-29T14:39:49.063Z,38.90
2019-03-29T14:42:17.461Z,38.20
2019-03-29T14:44:52.371Z,38.10
2019-03-29T14:47:15.888Z,38.40
2019-03-29T14:49:44.264Z,39.00
2019-03-29T14:52:12.670Z,39.00
2019-03-29T14:54:41.040Z,38.60
2019-03-29T14:57:09.447Z,38.40
2019-03-29T14:59:37.819Z,38.50
2019-03-29T15:02:06.206Z,39.40
2019-03-29T15:04:34.587Z,38.10
2019-03-29T15:07:02.963Z,38.50
2019-03-29T15:09:31.337Z,38.50
2019-03-29T15:11:59.728Z,39.10
2019-03-29T15:14:28.095Z,38.60
2019-03-29T15:16:56.488Z,38.10
2019-03-29T15:19:24.864Z,38.90
2019-03-29T15:21:53.266Z,38.60
2019-03-29T15:24:21.641Z,37.90
2019-03-29T15:26:50.022Z,38.10
2019-03-29T15:29:18.395Z,39.10
2019-03-29T15:31:46.803Z,39.10
2019-03-29T15:34:15.180Z,38.60
2019-03-29T15:36:43.570Z,39.00
2019-03-29T15:39:11.946Z,38.30
2019-03-29T15:41:40.420Z,39.20
2019-03-29T15:44:08.793Z,38.80
2019-03-29T15:46:37.182Z,39.10
2019-03-29T15:49:05.492Z,39.50
2019-03-29T15:51:33.929Z,38.70
2019-03-29T15:54:02.319Z,38.90
2019-03-29T15:56:30.737Z,38.70
2019-03-29T15:58:59.177Z,39.00
2019-03-29T16:01:27.554Z,39.10
2019-03-29T16:03:55.981Z,39.40
2019-03-29T16:06:24.371Z,40.10
2019-03-29T16:08:52.796Z,40.60
2019-03-29T16:11:22.550Z,40.30
2019-03-29T16:13:51.103Z,40.10
2019-03-29T16:16:19.498Z,39.70
2019-03-29T16:18:47.933Z,39.80
2019-03-29T16:21:16.311Z,40.00
2019-03-29T16:23:44.743Z,40.40
2019-03-29T16:26:13.144Z,40.10
2019-03-29T16:28:41.541Z,40.10
2019-03-29T16:31:09.949Z,39.90
2019-03-29T16:33:38.358Z,42.40
2019-03-29T16:36:06.757Z,41.30
2019-03-29T16:38:35.165Z,41.20
2019-03-29T16:41:03.620Z,40.90
2019-03-29T16:43:32.021Z,41.00
2019-03-29T16:46:00.548Z,41.30
2019-03-29T16:48:29.090Z,40.90
2019-03-29T16:50:57.494Z,40.90
2019-03-29T16:53:25.913Z,40.80
2019-03-29T16:55:54.312Z,41.30
2019-03-29T16:58:22.734Z,41.40
2019-03-29T17:00:51.212Z,41.50
2019-03-29T17:03:19.723Z,41.70
2019-03-29T17:05:48.146Z,41.40
2019-03-29T17:08:16.587Z,41.70
2019-03-29T17:10:45.191Z,41.00
2019-03-29T17:13:14.025Z,41.40
2019-03-29T17:15:42.589Z,41.70
2019-03-29T17:18:11.092Z,41.90
2019-03-29T17:20:39.507Z,42.30
2019-03-29T17:23:07.967Z,41.20
2019-03-29T17:25:36.449Z,42.00
2019-03-29T17:28:04.869Z,42.00
2019-03-29T17:30:39.500Z,42.00
2019-03-29T17:33:07.919Z,42.00
2019-03-29T17:35:36.315Z,42.30
2019-03-29T17:38:04.869Z,42.80
2019-03-29T17:40:33.350Z,43.00
2019-03-29T17:43:01.784Z,43.10
2019-03-29T17:45:30.219Z,43.30
2019-03-29T17:47:58.639Z,43.40
2019-03-29T17:50:27.064Z,43.60
2019-03-29T17:52:55.474Z,43.90
2019-03-29T17:55:23.903Z,44.10
2019-03-29T17:57:52.307Z,44.70
2019-03-29T18:00:22.350Z,45.10
2019-03-29T18:02:50.729Z,45.40
2019-03-29T18:05:20.064Z,45.80
2019-03-29T18:07:48.459Z,45.50
2019-03-29T18:10:18.141Z,45.40
2019-03-29T18:12:46.620Z,46.20
2019-03-29T18:15:15.237Z,46.40
2019-03-29T18:17:43.639Z,46.00
2019-03-29T18:20:12.037Z,46.70
2019-03-29T18:22:40.427Z,46.10
2019-03-29T18:25:08.927Z,45.80
2019-03-29T18:27:37.323Z,45.40
2019-03-29T18:30:09.289Z,45.50
2019-03-29T18:32:37.934Z,45.60
2019-03-29T18:35:07.333Z,45.80
2019-03-29T18:37:35.804Z,46.50
2019-03-29T18:40:05.684Z,47.10
2019-03-29T18:42:34.158Z,47.40
2019-03-29T18:45:02.846Z,47.40
2019-03-29T18:47:31.264Z,48.10
2019-03-29T18:49:59.684Z,48.40
2019-03-29T18:52:28.107Z,49.30
2019-03-29T18:54:56.569Z,49.40
2019-03-29T18:57:24.971Z,49.20
2019-03-29T18:59:53.390Z,49.50
2019-03-29T19:02:21.789Z,49.40
2019-03-29T19:04:50.265Z,49.50
2019-03-29T19:07:21.983Z,49.50
2019-03-29T19:09:50.463Z,49.70
2019-03-29T19:12:18.880Z,50.00
2019-03-29T19:14:48.655Z,50.30
2019-03-29T19:17:17.181Z,51.20
2019-03-29T19:19:45.735Z,51.20
2019-03-29T19:22:14.272Z,51.50
2019-03-29T19:24:42.661Z,51.60
2019-03-29T19:27:11.090Z,51.60
2019-03-29T19:29:39.553Z,51.90
2019-03-29T19:32:07.984Z,52.00
2019-03-29T19:34:36.415Z,51.90
2019-03-29T19:37:04.848Z,52.00
2019-03-29T19:39:33.286Z,51.90
2019-03-29T19:42:01.712Z,51.80
2019-03-29T19:44:30.133Z,52.70
2019-03-29T19:47:12.473Z,52.40
2019-03-29T19:49:28.673Z,52.50
2019-03-29T19:51:57.104Z,53.10
2019-03-29T19:54:25.511Z,53.60
2019-03-29T19:56:53.992Z,53.40
2019-03-29T19:59:22.941Z,54.20
2019-03-29T20:01:51.384Z,53.70
2019-03-29T20:04:19.798Z,53.60
2019-03-29T20:06:48.319Z,53.40
2019-03-29T20:09:16.794Z,53.40
2019-03-29T20:11:45.255Z,53.90
2019-03-29T20:14:13.686Z,55.00
2019-03-29T20:16:42.090Z,55.10
2019-03-29T20:19:11.640Z,55.00
2019-03-29T20:21:43.257Z,55.30
2019-03-29T20:24:11.713Z,55.60
2019-03-29T20:26:42.414Z,55.80
2019-03-29T20:29:10.811Z,56.10
2019-03-29T20:31:39.263Z,56.80
2019-03-29T20:34:07.794Z,57.50
2019-03-29T20:36:36.222Z,57.30
2019-03-29T20:39:06.998Z,57.60
2019-03-29T20:41:35.793Z,57.90
2019-03-29T20:44:04.198Z,58.40
2019-03-29T20:46:32.626Z,58.60
2019-03-29T20:49:01.044Z,58.60
2019-03-29T20:51:29.480Z,58.80
2019-03-29T20:53:58.008Z,59.20
2019-03-29T20:56:28.835Z,59.60
2019-03-29T20:58:56.557Z,59.90
2019-03-29T21:01:25.022Z,59.70
2019-03-29T21:03:53.416Z,60.20
2019-03-29T21:06:21.839Z,60.70
2019-03-29T21:08:50.246Z,61.10
2019-03-29T21:11:18.671Z,61.60
2019-03-29T21:13:47.215Z,61.50
2019-03-29T21:16:15.811Z,61.90
2019-03-29T21:18:44.227Z,61.80
2019-03-29T21:21:12.684Z,61.80
2019-03-29T21:23:41.108Z,61.80
2019-03-29T21:26:09.534Z,62.40
2019-03-29T21:28:37.956Z,62.60
2019-03-29T21:31:06.400Z,63.10
2019-03-29T21:33:34.946Z,63.40
2019-03-29T21:36:03.431Z,63.30
2019-03-29T21:38:31.902Z,63.40
2019-03-29T21:41:00.342Z,63.50
2019-03-29T21:43:28.798Z,63.40
2019-03-29T21:45:57.239Z,64.20
2019-03-29T21:48:28.898Z,64.60
2019-03-29T21:50:56.110Z,64.80
2019-03-29T21:53:24.645Z,65.20
2019-03-29T21:55:53.123Z,65.20
2019-03-29T21:58:21.496Z,65.00
2019-03-29T22:00:49.898Z,65.30
2019-03-29T22:03:18.322Z,65.60
2019-03-29T22:05:47.386Z,65.60
2019-03-29T22:08:17.972Z,66.30
2019-03-29T22:10:45.936Z,66.50
2019-03-29T22:13:14.401Z,66.80
2019-03-29T22:15:42.773Z,66.90
2019-03-29T22:18:11.166Z,66.80
2019-03-29T22:20:39.607Z,66.90
2019-03-29T22:23:08.006Z,66.60
2019-03-29T22:25:36.459Z,66.90
2019-03-29T22:28:04.846Z,67.60
2019-03-29T22:30:33.152Z,68.40
2019-03-29T22:33:03.992Z,68.90
2019-03-29T22:35:31.596Z,69.10
2019-03-29T22:37:59.984Z,69.40
2019-03-29T22:40:28.370Z,69.10
2019-03-29T22:42:56.776Z,69.30
2019-03-29T22:45:25.143Z,69.00
2019-03-29T22:47:53.546Z,68.50
2019-03-29T22:50:21.958Z,68.40
2019-03-29T22:52:50.327Z,68.00
2019-03-29T22:55:18.786Z,68.20
2019-03-29T22:57:47.246Z,68.30
2019-03-29T23:00:18.832Z,68.90
2019-03-29T23:02:47.308Z,68.70
2019-03-29T23:05:15.681Z,69.30
2019-03-29T23:07:44.079Z,69.10
2019-03-29T23:10:12.484Z,69.00
2019-03-29T23:12:40.880Z,68.70
2019-03-29T23:15:09.272Z,69.00
2019-03-29T23:17:37.676Z,68.80
2019-03-29T23:20:06.207Z,69.20
2019-03-29T23:22:34.532Z,69.40
2019-03-29T23:25:02.986Z,68.90
2019-03-29T23:27:31.380Z,69.60
2019-03-29T23:29:59.754Z,70.60
2019-03-29T23:32:28.164Z,70.60
2019-03-29T23:34:56.539Z,70.80
2019-03-29T23:37:24.948Z,70.10
2019-03-29T23:39:53.303Z,70.50
2019-03-29T23:42:21.682Z,70.70
2019-03-29T23:44:50.096Z,70.80
2019-03-29T23:47:18.480Z,70.70
2019-03-29T23:49:47.189Z,71.30
2019-03-29T23:52:15.666Z,71.20
2019-03-29T23:54:44.055Z,70.80
2019-03-29T23:57:12.448Z,70.70
2019-03-29T23:59:40.842Z,71.00
